createdAt,value
2019-01-14T00:00:30.562Z,0.13
2019-01-14T00:01:01.836Z,0.13
2019-01-14T00:01:33.074Z,0.12
2019-01-14T00:02:04.335Z,0.14
2019-01-14T00:02:35.509Z,0.13
2019-01-14T00:03:06.763Z,0.12
2019-01-14T00:03:37.985Z,0.09
2019-01-14T00:04:09.216Z,0.08
2019-01-14T00:04:40.413Z,0.05
2019-01-14T00:05:11.534Z,0.03
2019-01-14T00:05:42.741Z,0.00
2019-01-14T00:06:14.019Z,0.00
2019-01-14T00:06:45.172Z,0.00
2019-01-14T00:07:16.386Z,-0.02
2019-01-14T00:07:47.624Z,-0.01
2019-01-14T00:08:18.834Z,-0.02
2019-01-14T00:08:50.027Z,-0.03
2019-01-14T00:09:23.432Z,-0.03
2019-01-14T00:09:54.242Z,-0.04
2019-01-14T00:10:25.443Z,-0.06
2019-01-14T00:10:56.640Z,-0.07
2019-01-14T00:11:27.826Z,-0.08
2019-01-14T00:11:59.058Z,-0.10
2019-01-14T00:12:30.291Z,-0.10
2019-01-14T00:13:01.420Z,-0.09
2019-01-14T00:13:32.637Z,-0.11
2019-01-14T00:14:03.927Z,-0.11
2019-01-14T00:14:35.166Z,-0.11
2019-01-14T00:15:06.402Z,-0.12
2019-01-14T00:15:37.639Z,-0.12
2019-01-14T00:16:09.648Z,-0.13
2019-01-14T00:16:40.897Z,-0.12
2019-01-14T00:17:12.129Z,-0.12
2019-01-14T00:17:43.360Z,-0.14
2019-01-14T00:18:14.563Z,-0.17
2019-01-14T00:18:45.841Z,-0.18
2019-01-14T00:19:17.073Z,-0.20
2019-01-14T00:19:48.258Z,-0.23
2019-01-14T00:20:19.503Z,-0.25
2019-01-14T00:20:50.728Z,-0.26
2019-01-14T00:21:21.955Z,-0.33
2019-01-14T00:21:53.170Z,-0.33
2019-01-14T00:22:24.388Z,-0.31
2019-01-14T00:22:55.622Z,-0.32
2019-01-14T00:23:26.834Z,-0.81
2019-01-14T00:23:58.065Z,-0.34
2019-01-14T00:24:29.258Z,-0.33
2019-01-14T00:25:00.452Z,-0.33
2019-01-14T00:25:31.643Z,-0.36
2019-01-14T00:26:02.918Z,-0.32
2019-01-14T00:26:34.089Z,-0.38
2019-01-14T00:27:05.322Z,-0.36
2019-01-14T00:27:36.569Z,-0.42
2019-01-14T00:28:07.780Z,-0.43
2019-01-14T00:28:39.007Z,-0.49
2019-01-14T00:29:10.261Z,-0.52
2019-01-14T00:29:41.553Z,-0.56
2019-01-14T00:30:12.768Z,-0.59
2019-01-14T00:30:43.976Z,-0.60
2019-01-14T00:31:15.173Z,-0.60
2019-01-14T00:31:46.381Z,-0.65
2019-01-14T00:32:17.608Z,-0.60
2019-01-14T00:32:48.804Z,-0.60
2019-01-14T00:33:20.009Z,-0.62
2019-01-14T00:33:51.217Z,-0.62
2019-01-14T00:34:22.442Z,-0.62
2019-01-14T00:34:53.697Z,-0.62
2019-01-14T00:35:24.883Z,-0.64
2019-01-14T00:35:56.162Z,-0.64
2019-01-14T00:36:27.398Z,-0.63
2019-01-14T00:36:58.631Z,-0.63
2019-01-14T00:37:29.872Z,-0.64
2019-01-14T00:38:01.116Z,-0.65
2019-01-14T00:38:32.329Z,-0.69
2019-01-14T00:39:03.530Z,-0.69
2019-01-14T00:39:34.733Z,-0.72
2019-01-14T00:40:05.975Z,-0.73
2019-01-14T00:40:37.200Z,-0.68
2019-01-14T00:41:08.464Z,-0.70
2019-01-14T00:41:39.694Z,-0.70
2019-01-14T00:42:10.951Z,-0.68
2019-01-14T00:42:42.156Z,-1.23
2019-01-14T00:43:13.336Z,-0.67
2019-01-14T00:43:44.627Z,-0.66
2019-01-14T00:44:15.856Z,-0.66
2019-01-14T00:44:47.067Z,-0.65
2019-01-14T00:45:18.315Z,-0.65
2019-01-14T00:45:49.541Z,-0.65
2019-01-14T00:46:20.767Z,-0.65
2019-01-14T00:46:51.960Z,-0.66
2019-01-14T00:47:23.203Z,-0.67
2019-01-14T00:47:54.375Z,-0.67
2019-01-14T00:48:25.618Z,-0.67
2019-01-14T00:48:56.819Z,-0.67
2019-01-14T00:49:28.095Z,-0.67
2019-01-14T00:49:59.383Z,-0.66
2019-01-14T00:50:30.576Z,-0.66
2019-01-14T00:51:01.775Z,-0.65
2019-01-14T00:51:33.009Z,-0.63
2019-01-14T00:52:04.232Z,-0.64
2019-01-14T00:52:35.476Z,-0.65
2019-01-14T00:53:06.724Z,-0.67
2019-01-14T00:53:37.942Z,-0.69
2019-01-14T00:54:10.651Z,-0.71
2019-01-14T00:54:41.976Z,-0.69
2019-01-14T00:55:13.200Z,-0.69
2019-01-14T00:55:44.438Z,-0.69
2019-01-14T00:56:15.713Z,-0.70
2019-01-14T00:56:46.860Z,-0.71
2019-01-14T00:57:18.095Z,-0.71
2019-01-14T00:57:49.304Z,-0.75
2019-01-14T00:58:20.543Z,-0.75
2019-01-14T00:58:51.802Z,-0.74
2019-01-14T00:59:22.992Z,-0.74
2019-01-14T00:59:54.206Z,-0.73
2019-01-14T01:00:25.481Z,-0.71
2019-01-14T01:00:56.734Z,-0.71
2019-01-14T01:01:27.977Z,-0.71
2019-01-14T01:01:59.195Z,-0.70
2019-01-14T01:02:30.426Z,-0.71
2019-01-14T01:03:01.672Z,-0.72
2019-01-14T01:03:32.897Z,-0.72
2019-01-14T01:04:04.112Z,-0.70
2019-01-14T01:04:35.393Z,-0.69
2019-01-14T01:05:06.777Z,-0.75
2019-01-14T01:05:37.995Z,-0.75
2019-01-14T01:06:09.225Z,-0.73
2019-01-14T01:06:40.483Z,-0.76
2019-01-14T01:07:11.714Z,-0.79
2019-01-14T01:07:43.017Z,-0.81
2019-01-14T01:08:16.208Z,-0.86
2019-01-14T01:08:47.395Z,-0.86
2019-01-14T01:09:18.626Z,-0.84
2019-01-14T01:09:49.922Z,-0.84
2019-01-14T01:10:21.149Z,-0.85
2019-01-14T01:10:52.405Z,-0.82
2019-01-14T01:11:23.648Z,-0.84
2019-01-14T01:11:54.854Z,-0.82
2019-01-14T01:12:26.127Z,-0.81
2019-01-14T01:12:57.399Z,-0.81
2019-01-14T01:13:28.596Z,-0.79
2019-01-14T01:13:59.820Z,-0.81
2019-01-14T01:14:31.257Z,-0.81
2019-01-14T01:15:02.505Z,-0.84
2019-01-14T01:15:33.726Z,-0.88
2019-01-14T01:16:04.928Z,-0.88
2019-01-14T01:16:36.176Z,-0.88
2019-01-14T01:17:07.390Z,-0.88
2019-01-14T01:17:38.577Z,-0.86
2019-01-14T01:18:09.860Z,-0.86
2019-01-14T01:18:41.131Z,-0.86
2019-01-14T01:19:12.390Z,-0.87
2019-01-14T01:19:43.671Z,-0.91
2019-01-14T01:20:14.878Z,-0.90
2019-01-14T01:20:46.129Z,-0.88
2019-01-14T01:21:17.407Z,-0.95
2019-01-14T01:21:48.627Z,-0.95
2019-01-14T01:22:19.914Z,-0.94
2019-01-14T01:22:51.126Z,-0.97
2019-01-14T01:23:22.343Z,-1.04
2019-01-14T01:23:53.609Z,-1.10
2019-01-14T01:24:24.828Z,-1.10
2019-01-14T01:24:56.078Z,-1.02
2019-01-14T01:25:27.282Z,-0.93
2019-01-14T01:25:58.560Z,-0.87
2019-01-14T01:26:29.760Z,-0.83
2019-01-14T01:27:00.980Z,-0.81
2019-01-14T01:27:32.206Z,-0.78
2019-01-14T01:28:03.419Z,-0.77
2019-01-14T01:28:34.724Z,-0.81
2019-01-14T01:29:05.950Z,-0.85
2019-01-14T01:29:37.166Z,-0.87
2019-01-14T01:30:08.446Z,-0.91
2019-01-14T01:30:39.769Z,-0.91
2019-01-14T01:31:11.052Z,-0.96
2019-01-14T01:31:42.346Z,-1.02
2019-01-14T01:32:13.690Z,-1.09
2019-01-14T01:32:44.970Z,-1.12
2019-01-14T01:33:16.255Z,-1.14
2019-01-14T01:33:47.632Z,-1.13
2019-01-14T01:34:18.877Z,-1.12
2019-01-14T01:34:50.121Z,-1.11
2019-01-14T01:35:21.381Z,-1.09
2019-01-14T01:35:52.622Z,-1.07
2019-01-14T01:36:23.868Z,-1.05
2019-01-14T01:36:55.114Z,-1.05
2019-01-14T01:37:26.420Z,-1.04
2019-01-14T01:37:57.686Z,-1.12
2019-01-14T01:38:28.979Z,-1.12
2019-01-14T01:39:00.275Z,-1.10
2019-01-14T01:39:31.559Z,-1.15
2019-01-14T01:40:02.822Z,-1.18
2019-01-14T01:40:34.142Z,-1.23
2019-01-14T01:41:05.385Z,-1.19
2019-01-14T01:41:36.660Z,-1.19
2019-01-14T01:42:07.987Z,-1.18
2019-01-14T01:42:39.289Z,-1.17
2019-01-14T01:43:10.597Z,-1.19
2019-01-14T01:43:41.849Z,-1.20
2019-01-14T01:44:13.214Z,-1.26
2019-01-14T01:44:44.481Z,-1.33
2019-01-14T01:45:15.741Z,-1.39
2019-01-14T01:45:47.019Z,-1.46
2019-01-14T01:46:18.373Z,-1.53
2019-01-14T01:46:49.620Z,-1.52
2019-01-14T01:47:21.557Z,-1.51
2019-01-14T01:47:52.844Z,-1.47
2019-01-14T01:48:24.157Z,-1.45
2019-01-14T01:48:56.414Z,-1.45
2019-01-14T01:49:27.809Z,-1.44
2019-01-14T01:49:59.149Z,-1.43
2019-01-14T01:50:30.469Z,-1.43
2019-01-14T01:51:01.850Z,-1.42
2019-01-14T01:51:33.148Z,-1.44
2019-01-14T01:52:04.577Z,-1.44
2019-01-14T01:52:36.785Z,-1.45
2019-01-14T01:53:08.101Z,-1.48
2019-01-14T01:53:39.478Z,-1.50
2019-01-14T01:54:10.807Z,-1.51
2019-01-14T01:54:42.672Z,-1.51
2019-01-14T01:55:14.060Z,-1.53
2019-01-14T01:55:45.373Z,-1.54
2019-01-14T01:56:16.710Z,-1.54
2019-01-14T01:56:48.018Z,-1.52
2019-01-14T01:57:19.291Z,-1.53
2019-01-14T01:57:50.499Z,-1.53
2019-01-14T01:58:21.721Z,-1.53
2019-01-14T01:58:53.148Z,-1.53
2019-01-14T01:59:24.468Z,-1.52
2019-01-14T01:59:55.816Z,-1.53
2019-01-14T02:00:27.052Z,-1.51
2019-01-14T02:00:58.360Z,-1.51
2019-01-14T02:01:29.721Z,-1.49
2019-01-14T02:02:03.310Z,-1.49
2019-01-14T02:02:34.505Z,-1.51
2019-01-14T02:03:17.086Z,-1.50
2019-01-14T02:03:48.458Z,-1.52
2019-01-14T02:04:19.745Z,-1.51
2019-01-14T02:04:50.991Z,-1.51
2019-01-14T02:05:22.419Z,-1.51
2019-01-14T02:05:53.684Z,-1.52
2019-01-14T02:06:25.014Z,-1.51
2019-01-14T02:06:56.284Z,-1.51
2019-01-14T02:07:27.681Z,-1.51
2019-01-14T02:07:59.005Z,-1.50
2019-01-14T02:08:30.321Z,-1.50
2019-01-14T02:09:01.687Z,-1.49
2019-01-14T02:09:33.994Z,-1.47
2019-01-14T02:10:06.576Z,-1.47
2019-01-14T02:10:37.966Z,-1.47
2019-01-14T02:11:09.266Z,-1.46
2019-01-14T02:11:40.558Z,-1.44
2019-01-14T02:12:12.804Z,-1.43
2019-01-14T02:12:44.124Z,-1.42
2019-01-14T02:13:15.435Z,-1.41
2019-01-14T02:13:46.760Z,-1.39
2019-01-14T02:14:18.044Z,-1.40
2019-01-14T02:14:49.283Z,-1.38
2019-01-14T02:15:20.647Z,-1.38
2019-01-14T02:15:52.052Z,-1.38
2019-01-14T02:16:26.768Z,-1.37
2019-01-14T02:16:58.154Z,-1.38
2019-01-14T02:17:30.072Z,-1.39
2019-01-14T02:18:01.402Z,-1.39
2019-01-14T02:18:33.205Z,-1.39
2019-01-14T02:19:04.536Z,-1.39
2019-01-14T02:19:35.861Z,-1.38
2019-01-14T02:20:11.656Z,-1.38
2019-01-14T02:20:43.860Z,-1.46
2019-01-14T02:21:15.171Z,-1.46
2019-01-14T02:21:46.536Z,-1.48
2019-01-14T02:22:18.280Z,-1.50
2019-01-14T02:22:49.971Z,-1.50
2019-01-14T02:23:21.452Z,-1.52
2019-01-14T02:23:55.889Z,-1.46
2019-01-14T02:24:27.266Z,-1.41
2019-01-14T02:24:58.596Z,-1.38
2019-01-14T02:25:31.069Z,-1.39
2019-01-14T02:26:04.978Z,-1.45
2019-01-14T02:26:36.301Z,-1.50
2019-01-14T02:27:07.658Z,-1.48
2019-01-14T02:27:39.632Z,-1.46
2019-01-14T02:28:10.908Z,-1.45
2019-01-14T02:28:43.750Z,-1.45
2019-01-14T02:29:15.851Z,-2.59
2019-01-14T02:29:47.142Z,-1.48
2019-01-14T02:30:19.731Z,-1.49
2019-01-14T02:30:51.089Z,-1.51
2019-01-14T02:31:22.918Z,-1.50
2019-01-14T02:31:55.219Z,-1.51
2019-01-14T02:32:26.790Z,-1.52
2019-01-14T02:32:58.160Z,-1.54
2019-01-14T02:33:29.494Z,-1.56
2019-01-14T02:34:00.830Z,-1.59
2019-01-14T02:34:32.165Z,-1.61
2019-01-14T02:35:03.633Z,-1.62
2019-01-14T02:35:35.030Z,-1.64
2019-01-14T02:36:06.340Z,-1.65
2019-01-14T02:36:38.695Z,-1.66
2019-01-14T02:37:10.115Z,-1.66
2019-01-14T02:37:42.631Z,-1.68
2019-01-14T02:38:14.028Z,-1.69
2019-01-14T02:38:45.397Z,-1.71
2019-01-14T02:39:16.701Z,-1.74
2019-01-14T02:39:48.122Z,-1.77
2019-01-14T02:40:19.847Z,-1.78
2019-01-14T02:40:51.191Z,-1.77
2019-01-14T02:41:22.527Z,-1.76
2019-01-14T02:41:53.856Z,-1.77
2019-01-14T02:42:25.128Z,-1.76
2019-01-14T02:42:56.474Z,-1.78
2019-01-14T02:43:27.928Z,-1.80
2019-01-14T02:43:59.670Z,-1.81
2019-01-14T02:44:30.995Z,-1.81
2019-01-14T02:45:02.221Z,-1.81
2019-01-14T02:45:34.031Z,-1.81
2019-01-14T02:46:05.454Z,-1.80
2019-01-14T02:46:36.706Z,-1.80
2019-01-14T02:47:08.259Z,-1.82
2019-01-14T02:47:39.499Z,-1.82
2019-01-14T02:48:10.862Z,-1.84
2019-01-14T02:48:42.743Z,-1.87
2019-01-14T02:49:14.067Z,-1.88
2019-01-14T02:49:45.447Z,-1.89
2019-01-14T02:50:17.659Z,-1.90
2019-01-14T02:50:50.417Z,-1.92
2019-01-14T02:51:22.172Z,-1.98
2019-01-14T02:51:53.485Z,-1.95
2019-01-14T02:52:24.824Z,-1.95
2019-01-14T02:52:56.287Z,-1.94
2019-01-14T02:53:27.600Z,-1.96
2019-01-14T02:53:58.880Z,-1.95
2019-01-14T02:54:30.136Z,-1.94
2019-01-14T02:55:01.430Z,-1.94
2019-01-14T02:55:32.772Z,-1.94
2019-01-14T02:56:04.017Z,-1.97
2019-01-14T02:56:35.292Z,-2.01
2019-01-14T02:57:06.560Z,-2.05
2019-01-14T02:57:37.861Z,-2.04
2019-01-14T02:58:09.169Z,-2.05
2019-01-14T02:58:40.454Z,-2.03
2019-01-14T02:59:11.758Z,-2.02
2019-01-14T02:59:43.066Z,-2.02
2019-01-14T03:00:14.367Z,-2.00
2019-01-14T03:00:45.625Z,-2.01
2019-01-14T03:01:16.931Z,-1.99
2019-01-14T03:01:48.191Z,-1.99
2019-01-14T03:02:19.458Z,-2.02
2019-01-14T03:02:50.670Z,-2.00
2019-01-14T03:03:21.994Z,-2.00
2019-01-14T03:03:53.275Z,-1.99
2019-01-14T03:04:24.480Z,-2.02
2019-01-14T03:04:55.745Z,-2.03
2019-01-14T03:05:26.960Z,-2.02
2019-01-14T03:05:58.310Z,-2.01
2019-01-14T03:06:29.595Z,-2.01
2019-01-14T03:07:00.874Z,-2.02
2019-01-14T03:07:32.213Z,-2.01
2019-01-14T03:08:03.568Z,-2.01
2019-01-14T03:08:34.804Z,-2.01
2019-01-14T03:09:06.124Z,-2.01
2019-01-14T03:09:37.393Z,-2.02
2019-01-14T03:10:08.646Z,-2.03
2019-01-14T03:10:39.895Z,-2.05
2019-01-14T03:11:11.165Z,-2.05
2019-01-14T03:11:42.470Z,-2.06
2019-01-14T03:12:13.817Z,-2.08
2019-01-14T03:12:45.380Z,-2.10
2019-01-14T03:13:16.776Z,-2.13
2019-01-14T03:13:48.134Z,-2.17
2019-01-14T03:14:19.474Z,-2.18
2019-01-14T03:14:50.793Z,-2.19
2019-01-14T03:15:22.103Z,-2.19
2019-01-14T03:15:54.637Z,-2.17
2019-01-14T03:16:41.597Z,-2.16
2019-01-14T03:17:13.465Z,-2.16
2019-01-14T03:17:45.469Z,-2.16
2019-01-14T03:18:18.685Z,-2.15
2019-01-14T03:18:50.529Z,-2.15
2019-01-14T03:19:22.588Z,-2.14
2019-01-14T03:19:55.163Z,-2.14
2019-01-14T03:20:26.476Z,-2.14
2019-01-14T03:21:01.903Z,-2.17
2019-01-14T03:21:40.920Z,-2.16
2019-01-14T03:22:12.371Z,-2.16
2019-01-14T03:22:44.774Z,-2.18
2019-01-14T03:23:19.881Z,-2.20
2019-01-14T03:23:51.183Z,-2.21
2019-01-14T03:24:25.322Z,-2.23
2019-01-14T03:25:13.407Z,-2.24
2019-01-14T03:25:45.976Z,-2.32
2019-01-14T03:26:19.822Z,-2.38
2019-01-14T03:26:51.080Z,-2.39
2019-01-14T03:27:22.383Z,-2.39
2019-01-14T03:27:53.684Z,-2.38
2019-01-14T03:28:25.024Z,-2.36
2019-01-14T03:28:56.318Z,-2.36
2019-01-14T03:29:27.598Z,-2.33
2019-01-14T03:29:58.935Z,-2.33
2019-01-14T03:30:30.171Z,-2.33
2019-01-14T03:31:01.933Z,-2.31
2019-01-14T03:31:33.303Z,-2.29
2019-01-14T03:32:04.669Z,-2.31
2019-01-14T03:32:36.029Z,-2.30
2019-01-14T03:33:07.371Z,-2.27
2019-01-14T03:33:38.757Z,-2.26
2019-01-14T03:34:10.273Z,-2.26
2019-01-14T03:34:41.600Z,-2.29
2019-01-14T03:35:12.936Z,-2.30
2019-01-14T03:35:46.706Z,-2.34
2019-01-14T03:36:19.137Z,-2.27
2019-01-14T03:36:51.058Z,-2.24
2019-01-14T03:37:22.411Z,-2.23
2019-01-14T03:37:55.612Z,-2.25
2019-01-14T03:38:28.155Z,-2.36
2019-01-14T03:38:59.545Z,-2.42
2019-01-14T03:39:30.869Z,-2.45
2019-01-14T03:40:02.789Z,-2.47
2019-01-14T03:40:34.706Z,-2.52
2019-01-14T03:41:07.241Z,-2.54
2019-01-14T03:41:38.671Z,-2.57
2019-01-14T03:42:11.470Z,-2.59
2019-01-14T03:42:42.864Z,-2.63
2019-01-14T03:43:15.011Z,-2.65
2019-01-14T03:43:46.659Z,-2.69
2019-01-14T03:44:17.960Z,-2.68
2019-01-14T03:44:49.714Z,-2.72
2019-01-14T03:45:21.013Z,-2.75
2019-01-14T03:45:52.363Z,-2.77
2019-01-14T03:46:23.644Z,-2.79
2019-01-14T03:46:55.062Z,-2.84
2019-01-14T03:47:26.445Z,-2.90
2019-01-14T03:47:57.724Z,-2.87
2019-01-14T03:48:29.070Z,-2.84
2019-01-14T03:49:00.474Z,-2.84
2019-01-14T03:49:31.838Z,-2.89
2019-01-14T03:50:05.074Z,-2.90
2019-01-14T03:50:36.341Z,-2.90
2019-01-14T03:51:07.625Z,-2.89
2019-01-14T03:51:38.937Z,-2.87
2019-01-14T03:52:10.445Z,-2.87
2019-01-14T03:52:41.836Z,-2.87
2019-01-14T03:53:24.773Z,-2.87
2019-01-14T03:53:56.138Z,-2.94
2019-01-14T03:54:27.814Z,-2.92
2019-01-14T03:55:00.139Z,-2.92
2019-01-14T03:55:31.418Z,-2.91
2019-01-14T03:56:02.745Z,-2.90
2019-01-14T03:56:34.961Z,-2.87
2019-01-14T03:57:07.034Z,-2.86
2019-01-14T03:57:38.558Z,-2.84
2019-01-14T03:58:12.298Z,-2.81
2019-01-14T03:58:43.638Z,-2.78
2019-01-14T03:59:15.004Z,-2.78
2019-01-14T03:59:46.348Z,-2.74
2019-01-14T04:00:17.753Z,-2.74
2019-01-14T04:00:49.007Z,-2.73
2019-01-14T04:01:20.289Z,-2.71
2019-01-14T04:01:51.654Z,-2.69
2019-01-14T04:02:22.981Z,-2.65
2019-01-14T04:02:54.313Z,-2.63
2019-01-14T04:03:25.648Z,-2.60
2019-01-14T04:03:57.820Z,-2.57
2019-01-14T04:04:31.202Z,-2.58
2019-01-14T04:05:02.568Z,-2.56
2019-01-14T04:05:34.361Z,-2.55
2019-01-14T04:06:05.987Z,-2.57
2019-01-14T04:06:38.186Z,-2.56
2019-01-14T04:07:13.773Z,-2.57
2019-01-14T04:07:42.663Z,-2.56
2019-01-14T04:08:14.287Z,-2.56
2019-01-14T04:08:45.998Z,-2.57
2019-01-14T04:09:17.462Z,-2.58
2019-01-14T04:09:49.592Z,-2.59
2019-01-14T04:10:22.230Z,-2.57
2019-01-14T04:10:53.537Z,-2.54
2019-01-14T04:11:34.428Z,-2.51
2019-01-14T04:12:07.803Z,-2.46
2019-01-14T04:12:41.220Z,-2.45
2019-01-14T04:13:13.099Z,-2.44
2019-01-14T04:13:44.754Z,-2.45
2019-01-14T04:14:16.095Z,-2.45
2019-01-14T04:14:57.695Z,-2.43
2019-01-14T04:15:29.081Z,-2.44
2019-01-14T04:16:04.130Z,-2.45
2019-01-14T04:16:35.514Z,-2.46
2019-01-14T04:17:15.008Z,-2.47
2019-01-14T04:17:59.014Z,-2.46
2019-01-14T04:18:32.610Z,-2.46
2019-01-14T04:19:05.702Z,-2.47
2019-01-14T04:19:47.600Z,-2.48
2019-01-14T04:21:13.251Z,-2.55
2019-01-14T04:21:44.355Z,-2.72
2019-01-14T04:22:15.607Z,-2.80
2019-01-14T04:22:46.819Z,-2.85
2019-01-14T04:23:18.011Z,-2.79
2019-01-14T04:23:49.204Z,-2.70
2019-01-14T04:24:20.416Z,-2.64
2019-01-14T04:24:51.632Z,-2.60
2019-01-14T04:25:22.859Z,-2.61
2019-01-14T04:25:54.051Z,-2.61
2019-01-14T04:26:25.255Z,-2.60
2019-01-14T04:26:56.440Z,-2.61
2019-01-14T04:27:27.706Z,-2.64
2019-01-14T04:27:58.950Z,-2.63
2019-01-14T04:28:30.173Z,-2.63
2019-01-14T04:29:01.402Z,-2.64
2019-01-14T04:29:32.593Z,-2.64
2019-01-14T04:30:03.848Z,-2.65
2019-01-14T04:30:35.051Z,-2.64
2019-01-14T04:31:06.242Z,-2.63
2019-01-14T04:31:37.453Z,-2.64
2019-01-14T04:32:08.653Z,-2.64
2019-01-14T04:32:39.845Z,-2.64
2019-01-14T04:33:11.013Z,-2.65
2019-01-14T04:33:42.269Z,-2.67
2019-01-14T04:34:13.458Z,-2.67
2019-01-14T04:34:44.644Z,-2.66
2019-01-14T04:35:16.039Z,-2.66
2019-01-14T04:35:47.231Z,-2.64
2019-01-14T04:36:18.435Z,-2.63
2019-01-14T04:36:49.697Z,-2.63
2019-01-14T04:37:21.692Z,-2.61
2019-01-14T04:37:53.167Z,-2.62
2019-01-14T04:38:24.371Z,-2.61
2019-01-14T04:38:55.636Z,-2.60
2019-01-14T04:39:26.864Z,-2.60
2019-01-14T04:39:58.067Z,-2.62
2019-01-14T04:40:29.323Z,-2.72
2019-01-14T04:41:00.541Z,-2.81
2019-01-14T04:41:31.767Z,-2.90
2019-01-14T04:42:03.074Z,-2.92
2019-01-14T04:42:34.300Z,-2.96
2019-01-14T04:43:05.517Z,-2.97
2019-01-14T04:43:36.748Z,-3.03
2019-01-14T04:44:07.986Z,-3.09
2019-01-14T04:44:39.208Z,-3.14
2019-01-14T04:45:10.478Z,-3.13
2019-01-14T04:45:41.665Z,-3.11
2019-01-14T04:46:12.967Z,-3.08
2019-01-14T04:46:44.164Z,-3.08
2019-01-14T04:47:15.438Z,-3.07
2019-01-14T04:47:46.630Z,-3.08
2019-01-14T04:48:17.823Z,-3.03
2019-01-14T04:48:49.050Z,-3.02
2019-01-14T04:49:20.303Z,-2.99
2019-01-14T04:49:51.549Z,-3.00
2019-01-14T04:50:22.776Z,-2.99
2019-01-14T04:50:53.995Z,-2.98
2019-01-14T04:51:25.240Z,-2.99
2019-01-14T04:51:56.442Z,-2.99
2019-01-14T04:52:27.611Z,-2.97
2019-01-14T04:52:58.867Z,-2.94
2019-01-14T04:53:30.080Z,-2.94
2019-01-14T04:54:01.276Z,-2.95
2019-01-14T04:54:32.479Z,-2.97
2019-01-14T04:55:03.724Z,-3.00
2019-01-14T04:55:35.026Z,-3.00
2019-01-14T04:56:06.238Z,-3.02
2019-01-14T04:56:37.432Z,-3.04
2019-01-14T04:57:08.666Z,-3.06
2019-01-14T04:57:39.852Z,-3.04
2019-01-14T04:58:11.113Z,-3.01
2019-01-14T04:58:42.324Z,-2.98
2019-01-14T04:59:13.527Z,-2.96
2019-01-14T04:59:44.736Z,-2.97
2019-01-14T05:00:15.964Z,-3.00
2019-01-14T05:00:47.230Z,-4.34
2019-01-14T05:01:18.454Z,-3.05
2019-01-14T05:01:49.673Z,-3.08
2019-01-14T05:02:20.936Z,-3.06
2019-01-14T05:02:52.187Z,-3.04
2019-01-14T05:03:23.471Z,-2.99
2019-01-14T05:03:54.704Z,-2.88
2019-01-14T05:04:25.916Z,-2.89
2019-01-14T05:04:57.120Z,-2.95
2019-01-14T05:05:28.329Z,-3.05
2019-01-14T05:05:59.631Z,-3.07
2019-01-14T05:06:30.879Z,-3.10
2019-01-14T05:07:02.138Z,-3.12
2019-01-14T05:07:33.387Z,-3.14
2019-01-14T05:08:07.029Z,-3.12
2019-01-14T05:08:38.324Z,-3.13
2019-01-14T05:09:10.096Z,-3.17
2019-01-14T05:09:41.349Z,-3.19
2019-01-14T05:10:13.195Z,-3.21
2019-01-14T05:10:44.497Z,-3.26
2019-01-14T05:11:15.806Z,-3.29
2019-01-14T05:11:47.538Z,-3.32
2019-01-14T05:12:19.965Z,-3.35
2019-01-14T05:12:51.348Z,-3.22
2019-01-14T05:13:22.705Z,-3.21
2019-01-14T05:13:53.957Z,-3.26
2019-01-14T05:14:25.271Z,-3.27
2019-01-14T05:14:56.574Z,-3.30
2019-01-14T05:15:27.917Z,-3.34
2019-01-14T05:16:02.397Z,-3.37
2019-01-14T05:16:34.897Z,-3.41
2019-01-14T05:17:06.226Z,-3.41
2019-01-14T05:17:37.594Z,-3.41
2019-01-14T05:18:08.959Z,-3.42
2019-01-14T05:18:40.272Z,-3.39
2019-01-14T05:19:11.584Z,-3.37
2019-01-14T05:19:42.843Z,-3.33
2019-01-14T05:20:14.102Z,-3.29
2019-01-14T05:20:45.370Z,-3.27
2019-01-14T05:21:16.585Z,-3.23
2019-01-14T05:21:47.823Z,-3.20
2019-01-14T05:22:19.054Z,-3.17
2019-01-14T05:22:50.292Z,-3.15
2019-01-14T05:23:21.618Z,-3.14
2019-01-14T05:23:52.824Z,-3.11
2019-01-14T05:24:24.021Z,-3.09
2019-01-14T05:24:55.241Z,-3.09
2019-01-14T05:25:26.474Z,-3.10
2019-01-14T05:25:57.726Z,-3.11
2019-01-14T05:26:28.999Z,-3.08
2019-01-14T05:27:00.214Z,-3.03
2019-01-14T05:27:31.474Z,-3.00
2019-01-14T05:28:02.725Z,-2.97
2019-01-14T05:28:33.940Z,-2.92
2019-01-14T05:29:05.122Z,-2.83
2019-01-14T05:29:36.368Z,-2.79
2019-01-14T05:30:07.697Z,-2.74
2019-01-14T05:30:38.952Z,-2.72
2019-01-14T05:31:10.224Z,-2.70
2019-01-14T05:31:41.992Z,-2.69
2019-01-14T05:32:13.498Z,-2.67
2019-01-14T05:32:44.711Z,-2.65
2019-01-14T05:33:15.911Z,-2.65
2019-01-14T05:33:47.109Z,-2.64
2019-01-14T05:34:18.333Z,-2.64
2019-01-14T05:34:49.575Z,-2.65
2019-01-14T05:35:20.820Z,-2.68
2019-01-14T05:35:52.015Z,-2.67
2019-01-14T05:36:23.294Z,-2.64
2019-01-14T05:36:54.516Z,-2.62
2019-01-14T05:37:25.737Z,-2.60
2019-01-14T05:37:56.942Z,-2.55
2019-01-14T05:38:28.172Z,-2.52
2019-01-14T05:38:59.377Z,-2.45
2019-01-14T05:39:30.580Z,-2.39
2019-01-14T05:40:01.788Z,-2.35
2019-01-14T05:40:32.988Z,-2.31
2019-01-14T05:41:04.206Z,-2.27
2019-01-14T05:41:37.232Z,-2.24
2019-01-14T05:42:08.443Z,-2.25
2019-01-14T05:42:39.627Z,-2.22
2019-01-14T05:43:10.936Z,-2.25
2019-01-14T05:43:42.215Z,-2.25
2019-01-14T05:44:13.424Z,-2.25
2019-01-14T05:44:44.661Z,-2.24
2019-01-14T05:45:17.162Z,-2.24
2019-01-14T05:45:48.407Z,-2.20
2019-01-14T05:46:19.694Z,-2.20
2019-01-14T05:46:50.991Z,-2.19
2019-01-14T05:47:22.401Z,-2.19
2019-01-14T05:47:53.737Z,-2.18
2019-01-14T05:48:24.998Z,-2.17
2019-01-14T05:48:56.918Z,-2.19
2019-01-14T05:49:28.269Z,-2.20
2019-01-14T05:49:59.515Z,-2.22
2019-01-14T05:50:30.857Z,-2.24
2019-01-14T05:51:05.529Z,-2.26
2019-01-14T05:51:36.889Z,-2.28
2019-01-14T05:52:08.211Z,-2.28
2019-01-14T05:52:39.693Z,-2.29
2019-01-14T05:53:11.544Z,-2.30
2019-01-14T05:53:43.856Z,-2.32
2019-01-14T05:54:17.230Z,-2.30
2019-01-14T05:54:52.123Z,-2.29
2019-01-14T05:55:37.917Z,-2.29
2019-01-14T05:56:10.867Z,-2.26
2019-01-14T05:56:42.718Z,-2.29
2019-01-14T05:57:14.028Z,-2.34
2019-01-14T05:57:45.312Z,-2.38
2019-01-14T05:58:18.648Z,-2.39
2019-01-14T05:58:49.960Z,-2.40
2019-01-14T05:59:21.436Z,-2.40
2019-01-14T05:59:52.784Z,-2.37
2019-01-14T06:00:24.212Z,-2.38
2019-01-14T06:00:55.541Z,-2.38
2019-01-14T06:01:28.860Z,-2.37
2019-01-14T06:02:06.626Z,-2.33
2019-01-14T06:02:38.735Z,-2.29
2019-01-14T06:03:12.590Z,-2.24
2019-01-14T06:03:45.268Z,-2.19
2019-01-14T06:04:16.557Z,-2.16
2019-01-14T06:04:47.896Z,-2.17
2019-01-14T06:05:19.206Z,-2.20
2019-01-14T06:05:50.467Z,-2.27
2019-01-14T06:06:21.735Z,-2.39
2019-01-14T06:06:52.956Z,-2.43
2019-01-14T06:07:24.244Z,-2.45
2019-01-14T06:07:55.487Z,-2.43
2019-01-14T06:08:26.721Z,-2.44
2019-01-14T06:08:58.079Z,-2.47
2019-01-14T06:09:29.363Z,-2.54
2019-01-14T06:10:00.691Z,-2.66
2019-01-14T06:10:31.981Z,-2.79
2019-01-14T06:11:03.172Z,-2.89
2019-01-14T06:11:34.478Z,-2.95
2019-01-14T06:12:06.736Z,-2.98
2019-01-14T06:12:37.959Z,-2.98
2019-01-14T06:13:09.222Z,-3.01
2019-01-14T06:13:40.439Z,-3.00
2019-01-14T06:14:11.767Z,-3.01
2019-01-14T06:14:42.989Z,-3.01
2019-01-14T06:15:14.261Z,-3.01
2019-01-14T06:15:45.468Z,-3.00
2019-01-14T06:16:18.368Z,-3.02
2019-01-14T06:16:49.778Z,-3.02
2019-01-14T06:17:21.009Z,-3.00
2019-01-14T06:17:52.223Z,-2.98
2019-01-14T06:18:23.445Z,-3.01
2019-01-14T06:18:54.654Z,-4.23
2019-01-14T06:19:25.864Z,-3.11
2019-01-14T06:19:57.078Z,-3.11
2019-01-14T06:20:28.302Z,-3.12
2019-01-14T06:20:59.533Z,-3.10
2019-01-14T06:21:30.766Z,-3.09
2019-01-14T06:22:02.090Z,-3.10
2019-01-14T06:22:33.376Z,-3.13
2019-01-14T06:23:04.710Z,-3.13
2019-01-14T06:23:44.544Z,-3.09
2019-01-14T06:24:15.803Z,-3.07
2019-01-14T06:24:47.031Z,-3.04
2019-01-14T06:25:18.239Z,-3.02
2019-01-14T06:25:49.563Z,-3.01
2019-01-14T06:26:20.860Z,-3.02
2019-01-14T06:26:52.090Z,-3.01
2019-01-14T06:27:23.321Z,-2.98
2019-01-14T06:27:54.597Z,-2.97
2019-01-14T06:28:25.805Z,-2.94
2019-01-14T06:28:57.013Z,-2.94
2019-01-14T06:29:28.278Z,-2.93
2019-01-14T06:29:59.519Z,-2.92
2019-01-14T06:30:31.660Z,-2.92
2019-01-14T06:31:02.942Z,-2.91
2019-01-14T06:31:34.221Z,-2.92
2019-01-14T06:32:05.446Z,-2.91
2019-01-14T06:32:39.895Z,-2.89
2019-01-14T06:36:05.659Z,-2.88
2019-01-14T06:44:19.012Z,-4.27
2019-01-14T06:55:36.230Z,-2.77
2019-01-14T06:56:07.437Z,-2.70
2019-01-14T06:56:38.660Z,-2.64
2019-01-14T06:57:09.878Z,-2.58
2019-01-14T06:57:41.099Z,-2.54
2019-01-14T06:58:12.361Z,-2.47
2019-01-14T06:58:43.560Z,-2.40
2019-01-14T06:59:14.833Z,-2.34
2019-01-14T06:59:46.080Z,-2.29
2019-01-14T07:00:17.284Z,-2.23
2019-01-14T07:00:48.527Z,-2.15
2019-01-14T07:01:19.808Z,-2.09
2019-01-14T07:05:16.693Z,-1.52
2019-01-14T07:06:43.090Z,-1.37
2019-01-14T07:07:14.547Z,-1.27
2019-01-14T07:07:45.779Z,-1.20
2019-01-14T07:08:17.020Z,-1.15
2019-01-14T07:08:48.277Z,-2.13
2019-01-14T07:09:19.568Z,-1.09
2019-01-14T07:09:50.809Z,-1.00
2019-01-14T07:10:22.024Z,-0.90
2019-01-14T07:10:53.234Z,-0.75
2019-01-14T07:11:24.426Z,-0.61
2019-01-14T07:11:55.627Z,-0.47
2019-01-14T07:12:26.873Z,-0.36
2019-01-14T07:12:58.114Z,-0.26
2019-01-14T07:13:29.288Z,-0.13
2019-01-14T07:14:00.588Z,0.04
2019-01-14T07:14:31.789Z,0.17
2019-01-14T07:15:03.024Z,0.35